createdAt,value
2023-01-29T00:13:59.972Z,99273.94
2023-01-29T00:44:21.598Z,99248.53
2023-01-29T01:14:25.904Z,99188.19
2023-01-29T01:44:54.002Z,99179.94
2023-01-29T02:14:59.289Z,99195.94
2023-01-29T02:45:06.769Z,99195.44
2023-01-29T03:15:16.573Z,99175.47
2023-01-29T03:45:24.677Z,99172.81
2023-01-29T04:15:30.775Z,99198.81
2023-01-29T04:45:43.580Z,99168.88
2023-01-29T05:15:48.174Z,99160.84
2023-01-29T05:45:56.499Z,99183.19
2023-01-29T06:16:00.640Z,99147.97
2023-01-29T06:46:04.974Z,99150.78
2023-01-29T07:16:11.515Z,99181.50
2023-01-29T07:46:15.743Z,99185.00
2023-01-29T08:16:19.873Z,99203.13
2023-01-29T08:46:24.057Z,99208.53
2023-01-29T09:16:28.308Z,99218.94
2023-01-29T09:46:37.421Z,99239.69
2023-01-29T10:16:51.893Z,99184.06
2023-01-29T10:47:09.207Z,99136.00
2023-01-29T11:17:18.298Z,99092.69
2023-01-29T11:47:24.602Z,99058.97
2023-01-29T12:17:30.868Z,99012.78
2023-01-29T12:47:39.071Z,98954.19
2023-01-29T13:17:46.719Z,98920.34
2023-01-29T13:47:52.361Z,98916.34
2023-01-29T14:18:00.793Z,98868.41
2023-01-29T14:48:38.748Z,98850.44
2023-01-29T15:18:44.446Z,98812.13
2023-01-29T15:48:50.238Z,98780.97
2023-01-29T16:19:00.412Z,98835.03
2023-01-29T16:49:43.400Z,98844.47
2023-01-29T17:19:48.761Z,98864.19
2023-01-29T17:49:52.957Z,98817.59
2023-01-29T18:19:58.504Z,98815.41
2023-01-29T18:50:03.723Z,98779.88
2023-01-29T19:20:09.775Z,98766.06
2023-01-29T19:50:15.634Z,98716.84
2023-01-29T20:20:20.620Z,98693.41
2023-01-29T20:50:24.769Z,98655.44
2023-01-29T21:20:29.597Z,98612.91
2023-01-29T21:50:34.918Z,98566.88
2023-01-29T22:20:40.018Z,98533.34
2023-01-29T22:50:53.742Z,98509.75
2023-01-29T23:20:59.100Z,98519.53
2023-01-29T23:51:03.652Z,98485.84
